Time;durP1;ratioP1;P1;durP2;ratioP2;P2;SDS_P1;SDS_P2;PMS_P1;PMS_P2;Temp;Humidity;BMP_temperature;BMP_pressure;BME280_temperature;BME280_humidity;BME280_pressure;Samples;Min_cycle;Max_cycle;Signal;HPM_P1;HPM_P2
2020/12/31 00:00:21;;;;;;;3.88;2.13;;;4.80;91.20;;;;;;4950613;29;20051;-87
2020/12/31 00:02:47;;;;;;;4.47;2.08;;;4.90;91.20;;;;;;4931307;29;20047;-85
2020/12/31 00:05:14;;;;;;;4.05;1.98;;;4.90;91.10;;;;;;4923561;29;20142;-85
2020/12/31 00:07:42;;;;;;;5.03;2.35;;;4.90;91.00;;;;;;4937556;29;20043;-88
2020/12/31 00:13:52;;;;;;;6.72;2.40;;;4.80;90.20;;;;;;4940926;29;20135;-85
2020/12/31 00:16:19;;;;;;;4.00;2.10;;;4.60;90.70;;;;;;4943666;29;20091;-83
2020/12/31 00:18:46;;;;;;;4.05;2.00;;;4.40;91.10;;;;;;4939515;29;20062;-82
2020/12/31 00:21:13;;;;;;;3.50;1.98;;;4.40;91.00;;;;;;4954765;29;20102;-84
2020/12/31 00:23:41;;;;;;;4.63;2.22;;;4.20;91.20;;;;;;4951661;29;20150;-84
2020/12/31 00:26:08;;;;;;;4.20;2.38;;;4.20;91.30;;;;;;4945353;29;20083;-84
2020/12/31 00:28:34;;;;;;;4.32;2.40;;;4.20;91.30;;;;;;4931770;29;20131;-80
2020/12/31 00:31:01;;;;;;;4.00;2.20;;;4.10;91.30;;;;;;4954479;29;20086;-81
2020/12/31 00:33:28;;;;;;;3.78;1.95;;;4.00;91.60;;;;;;4959867;29;20131;-81
2020/12/31 00:35:56;;;;;;;4.32;2.30;;;4.00;91.60;;;;;;4952923;29;20075;-81
2020/12/31 00:38:24;;;;;;;4.05;2.25;;;4.00;91.70;;;;;;4913436;29;20583;-80
2020/12/31 00:40:53;;;;;;;4.32;2.40;;;4.00;91.80;;;;;;4942954;29;20136;-80
2020/12/31 00:43:21;;;;;;;4.45;2.30;;;4.10;91.60;;;;;;4955425;29;20447;-81
2020/12/31 00:45:48;;;;;;;5.90;2.83;;;4.20;91.60;;;;;;4935608;29;20457;-83
2020/12/31 00:48:15;;;;;;;5.55;2.55;;;4.10;91.50;;;;;;4943232;29;20134;-81
2020/12/31 00:50:43;;;;;;;4.75;2.78;;;4.20;91.50;;;;;;4948142;29;20138;-83
2020/12/31 00:53:10;;;;;;;4.97;2.40;;;4.20;91.30;;;;;;4953914;29;20126;-82
2020/12/31 00:55:40;;;;;;;4.28;2.22;;;4.10;91.50;;;;;;4950767;29;20053;-81
2020/12/31 00:58:09;;;;;;;4.65;2.53;;;4.10;91.50;;;;;;4949145;29;20086;-82
2020/12/31 01:00:36;;;;;;;4.10;2.25;;;4.10;91.40;;;;;;4959096;29;20118;-80
2020/12/31 01:03:05;;;;;;;3.67;2.00;;;4.10;91.40;;;;;;4950641;29;20126;-81
2020/12/31 01:05:33;;;;;;;4.10;2.22;;;4.10;91.60;;;;;;4963489;28;20074;-82
2020/12/31 01:08:00;;;;;;;4.75;2.42;;;4.00;91.90;;;;;;4951562;29;20099;-83
2020/12/31 01:10:27;;;;;;;6.68;2.53;;;4.00;91.40;;;;;;4926316;29;20055;-82
2020/12/31 01:12:54;;;;;;;4.85;2.17;;;4.00;91.50;;;;;;4966925;28;20082;-85
2020/12/31 01:15:22;;;;;;;4.88;2.15;;;4.10;91.40;;;;;;4970562;28;20059;-81
2020/12/31 01:17:48;;;;;;;5.03;2.50;;;4.00;91.50;;;;;;4957553;28;20051;-82
2020/12/31 01:20:15;;;;;;;4.07;1.95;;;4.00;91.30;;;;;;4957270;29;20536;-83
2020/12/31 01:22:41;;;;;;;3.97;2.10;;;3.90;91.70;;;;;;4955637;29;20035;-83
2020/12/31 01:25:08;;;;;;;3.78;2.03;;;3.90;91.90;;;;;;4952943;29;20105;-82
2020/12/31 01:27:38;;;;;;;4.45;2.40;;;3.90;92.00;;;;;;4958755;29;20066;-83
2020/12/31 01:30:05;;;;;;;4.18;2.03;;;3.90;92.20;;;;;;4959560;29;20115;-82
2020/12/31 01:32:33;;;;;;;4.25;2.10;;;3.80;92.30;;;;;;4941952;29;20066;-82
2020/12/31 01:35:00;;;;;;;3.50;2.15;;;3.80;92.30;;;;;;4940427;29;20111;-82
2020/12/31 01:37:27;;;;;;;4.78;2.40;;;3.70;92.60;;;;;;4955987;29;20028;-81
2020/12/31 01:39:54;;;;;;;4.32;2.10;;;3.70;92.30;;;;;;4954767;29;20086;-81
2020/12/31 01:42:21;;;;;;;4.55;2.42;;;3.60;92.60;;;;;;4954864;29;20078;-81
2020/12/31 01:44:48;;;;;;;5.43;2.22;;;3.60;92.40;;;;;;4951612;29;20537;-81
2020/12/31 01:47:17;;;;;;;4.85;2.58;;;3.60;92.40;;;;;;4934831;29;20047;-81
2020/12/31 01:49:49;;;;;;;5.95;2.28;;;3.50;92.50;;;;;;4952997;29;20075;-81
2020/12/31 01:52:17;;;;;;;6.32;2.55;;;3.50;92.80;;;;;;4954500;29;20051;-81
2020/12/31 01:54:49;;;;;;;5.55;2.65;;;3.50;92.70;;;;;;4951918;29;20078;-81
2020/12/31 01:57:16;;;;;;;5.28;2.63;;;3.50;92.50;;;;;;4952672;29;20075;-81
2020/12/31 01:59:43;;;;;;;4.82;2.60;;;3.60;92.40;;;;;;4933471;29;20133;-81
2020/12/31 02:02:12;;;;;;;4.47;2.28;;;3.70;92.30;;;;;;4951209;29;20138;-81
2020/12/31 02:04:39;;;;;;;5.05;2.22;;;3.60;91.80;;;;;;4951376;29;20055;-81
2020/12/31 02:07:07;;;;;;;5.93;2.13;;;3.70;91.90;;;;;;4930245;29;20142;-82
2020/12/31 02:09:38;;;;;;;4.03;2.10;;;3.80;92.10;;;;;;4948996;29;20111;-82
2020/12/31 02:12:06;;;;;;;3.67;2.08;;;3.80;92.50;;;;;;4954911;29;20044;-82
2020/12/31 02:14:34;;;;;;;4.07;2.15;;;3.70;92.70;;;;;;4951483;29;20055;-81
2020/12/31 02:17:01;;;;;;;5.03;2.05;;;3.70;92.10;;;;;;4947226;29;20092;-81
2020/12/31 02:19:28;;;;;;;4.22;2.03;;;3.70;92.00;;;;;;4944959;29;20079;-83
2020/12/31 02:21:59;;;;;;;4.22;2.13;;;3.80;91.60;;;;;;4944916;29;20473;-81
2020/12/31 02:24:26;;;;;;;4.75;2.22;;;3.80;91.60;;;;;;4923872;29;20066;-82
2020/12/31 02:26:53;;;;;;;4.18;2.10;;;3.90;91.90;;;;;;4940323;29;20281;-82
2020/12/31 02:29:19;;;;;;;5.15;2.47;;;3.80;92.20;;;;;;4926215;29;20063;-81
2020/12/31 02:31:48;;;;;;;4.15;2.03;;;3.80;92.40;;;;;;4941406;29;20576;-82
2020/12/31 02:34:24;;;;;;;4.05;2.15;;;3.80;92.50;;;;;;4943230;29;20060;-81
2020/12/31 02:36:51;;;;;;;4.22;1.85;;;3.80;92.70;;;;;;4945050;29;20093;-81
2020/12/31 02:39:19;;;;;;;3.97;1.60;;;3.80;92.70;;;;;;4945025;29;20052;-81
2020/12/31 02:41:47;;;;;;;4.97;1.77;;;3.80;92.60;;;;;;4929502;29;20119;-84
2020/12/31 02:44:14;;;;;;;3.80;1.75;;;3.80;92.60;;;;;;4930771;29;20119;-82
2020/12/31 02:46:42;;;;;;;4.80;2.00;;;3.80;92.60;;;;;;4928455;29;20062;-81
2020/12/31 02:49:09;;;;;;;3.40;1.67;;;3.70;92.80;;;;;;4932814;29;20044;-82
2020/12/31 02:51:36;;;;;;;5.10;1.88;;;3.70;93.00;;;;;;4933818;29;20088;-82
2020/12/31 02:54:03;;;;;;;4.53;2.08;;;3.70;90.90;;;;;;4941713;29;20119;-81
2020/12/31 02:56:32;;;;;;;4.07;2.13;;;3.70;92.20;;;;;;4928726;29;20052;-82
2020/12/31 02:59:02;;;;;;;5.05;2.65;;;3.70;92.60;;;;;;4951161;29;20070;-81
2020/12/31 03:01:34;;;;;;;4.13;1.92;;;3.60;93.30;;;;;;4950141;29;20469;-81
2020/12/31 03:04:01;;;;;;;4.90;2.00;;;3.50;93.20;;;;;;4952087;29;20059;-81
2020/12/31 03:06:27;;;;;;;4.15;2.00;;;3.40;93.30;;;;;;4937016;29;20075;-81
2020/12/31 03:08:54;;;;;;;4.65;2.00;;;3.40;93.50;;;;;;4934497;29;20115;-81
2020/12/31 03:11:24;;;;;;;3.63;1.73;;;3.30;93.60;;;;;;4953556;29;20082;-82
2020/12/31 03:13:53;;;;;;;4.35;1.70;;;3.40;92.50;;;;;;4940543;29;20063;-81
2020/12/31 03:16:20;;;;;;;3.72;1.80;;;3.40;93.00;;;;;;4956223;29;20068;-81
2020/12/31 03:18:47;;;;;;;3.78;1.90;;;3.40;93.20;;;;;;4935075;29;20071;-80
2020/12/31 03:21:14;;;;;;;3.33;1.67;;;3.40;93.40;;;;;;4950388;29;20114;-81
2020/12/31 03:23:41;;;;;;;3.67;2.03;;;3.40;93.40;;;;;;4956164;29;20713;-82
2020/12/31 03:29:28;;;;;;;3.97;2.00;;;3.30;93.50;;;;;;4907129;29;20048;-81
2020/12/31 03:31:57;;;;;;;4.22;1.90;;;3.20;93.70;;;;;;4904484;29;20061;-81
2020/12/31 03:34:23;;;;;;;4.32;2.03;;;3.20;93.70;;;;;;4889869;29;20092;-81
2020/12/31 03:36:50;;;;;;;4.38;2.10;;;3.20;93.60;;;;;;4904119;29;20108;-80
2020/12/31 03:39:20;;;;;;;3.97;2.13;;;3.20;93.70;;;;;;4914458;29;20085;-81
2020/12/31 03:41:47;;;;;;;4.22;1.90;;;3.10;93.50;;;;;;4914192;29;20124;-81
2020/12/31 03:47:05;;;;;;;4.03;2.13;;;3.10;93.50;;;;;;4922547;29;20052;-82
2020/12/31 03:49:32;;;;;;;4.88;1.92;;;2.90;93.50;;;;;;4901069;29;20052;-82
2020/12/31 03:51:59;;;;;;;4.45;2.10;;;2.80;93.70;;;;;;4901046;29;20097;-81
2020/12/31 03:54:25;;;;;;;4.65;2.08;;;2.80;93.80;;;;;;4894783;29;20119;-81
2020/12/31 03:56:52;;;;;;;3.97;1.75;;;2.70;94.00;;;;;;4920999;29;20072;-81
2020/12/31 03:59:38;;;;;;;4.07;2.00;;;2.60;94.40;;;;;;4904153;29;20071;-82
2020/12/31 04:02:11;;;;;;;4.60;2.03;;;2.30;94.80;;;;;;4894030;29;20120;-81
2020/12/31 04:04:47;;;;;;;4.88;1.90;;;2.30;95.00;;;;;;4892723;29;20088;-81
2020/12/31 04:07:17;;;;;;;4.82;1.90;;;2.30;95.00;;;;;;4898480;29;20135;-81
2020/12/31 04:09:44;;;;;;;4.70;1.90;;;2.30;94.70;;;;;;4912003;29;20676;-81
2020/12/31 04:15:00;;;;;;;4.20;1.67;;;2.30;94.30;;;;;;4910073;29;20118;-81
2020/12/31 04:17:27;;;;;;;3.83;1.80;;;2.20;94.20;;;;;;4916836;29;20087;-82
2020/12/31 04:19:54;;;;;;;4.30;1.88;;;2.20;94.20;;;;;;4931275;29;20103;-81
2020/12/31 04:22:21;;;;;;;4.18;1.73;;;2.30;93.60;;;;;;4933537;29;20134;-81
2020/12/31 04:24:47;;;;;;;3.28;1.58;;;2.30;93.60;;;;;;4934910;29;20107;-82
2020/12/31 04:27:21;;;;;;;3.17;1.50;;;2.20;91.50;;;;;;4956720;29;20075;-81
2020/12/31 04:29:48;;;;;;;3.70;1.70;;;2.30;91.60;;;;;;4958623;29;20056;-81
2020/12/31 04:32:15;;;;;;;4.43;1.80;;;2.40;90.90;;;;;;4958300;29;20051;-81
2020/12/31 04:34:43;;;;;;;3.80;1.85;;;2.40;90.50;;;;;;4958220;29;20055;-81
2020/12/31 04:37:10;;;;;;;5.35;2.60;;;2.50;90.80;;;;;;4958208;29;20066;-81
2020/12/31 04:39:40;;;;;;;3.45;1.98;;;2.60;90.50;;;;;;4958295;29;20086;-81
2020/12/31 04:42:06;;;;;;;3.50;1.90;;;2.70;90.50;;;;;;4945203;29;20055;-81
2020/12/31 04:44:34;;;;;;;4.03;2.10;;;2.70;90.50;;;;;;4961548;29;20054;-82
2020/12/31 04:47:04;;;;;;;3.70;1.90;;;2.80;90.60;;;;;;4961440;29;20059;-81
2020/12/31 04:49:44;;;;;;;4.05;1.90;;;2.70;91.10;;;;;;4957757;29;20070;-81
2020/12/31 04:54:52;;;;;;;4.32;1.92;;;2.50;91.30;;;;;;4959016;29;20075;-82
2020/12/31 04:57:24;;;;;;;4.40;2.10;;;2.50;91.00;;;;;;4943352;29;20103;-82
2020/12/31 04:59:53;;;;;;;4.25;2.30;;;2.50;91.30;;;;;;4956991;29;20079;-81
2020/12/31 05:02:20;;;;;;;4.03;2.20;;;2.50;91.00;;;;;;4928036;29;20474;-81
2020/12/31 05:04:48;;;;;;;3.35;1.60;;;2.60;90.40;;;;;;4944209;29;20066;-82
2020/12/31 05:10:12;;;;;;;3.65;1.75;;;2.60;90.90;;;;;;4957942;29;20055;-82
2020/12/31 05:12:46;;;;;;;3.95;1.90;;;2.50;90.90;;;;;;4958565;29;20501;-81
2020/12/31 05:15:17;;;;;;;3.83;1.92;;;2.30;90.80;;;;;;4954017;29;20051;-81
2020/12/31 05:17:44;;;;;;;6.13;2.30;;;2.20;91.30;;;;;;4965372;29;20063;-81
2020/12/31 05:23:15;;;;;;;4.93;2.30;;;2.10;91.80;;;;;;4959708;29;20509;-81
2020/12/31 05:25:42;;;;;;;4.10;2.30;;;2.00;91.90;;;;;;4977322;29;20039;-81
2020/12/31 05:28:27;;;;;;;4.22;2.00;;;2.00;91.60;;;;;;4953634;29;20074;-81
2020/12/31 05:30:57;;;;;;;4.88;2.35;;;2.10;92.00;;;;;;4930915;29;20479;-81
2020/12/31 05:33:31;;;;;;;4.95;2.25;;;2.20;91.90;;;;;;4947921;29;20055;-81
2020/12/31 05:39:22;;;;;;;5.50;2.28;;;2.30;91.40;;;;;;4925740;29;20052;-79
2020/12/31 05:41:49;;;;;;;4.90;2.38;;;2.40;91.60;;;;;;4951312;29;20088;-80
2020/12/31 05:44:16;;;;;;;6.03;2.60;;;2.40;91.50;;;;;;4957249;29;20110;-80
2020/12/31 05:46:44;;;;;;;6.60;2.70;;;2.30;91.30;;;;;;4958123;29;20095;-81
2020/12/31 05:49:15;;;;;;;5.05;2.72;;;2.40;91.60;;;;;;4945075;29;20098;-80
2020/12/31 05:51:43;;;;;;;6.07;2.67;;;2.30;91.90;;;;;;4948941;29;20118;-81
2020/12/31 05:54:17;;;;;;;4.50;2.10;;;2.30;92.00;;;;;;4968046;29;20027;-81
2020/12/31 05:56:46;;;;;;;4.97;2.35;;;2.20;91.80;;;;;;4950690;29;20047;-80
2020/12/31 05:59:22;;;;;;;4.53;2.42;;;2.10;92.10;;;;;;4942981;29;20056;-80
2020/12/31 06:02:03;;;;;;;5.57;2.38;;;2.10;92.40;;;;;;4954668;29;20134;-80
2020/12/31 06:04:47;;;;;;;4.95;2.63;;;2.00;92.60;;;;;;4947297;29;20052;-81
2020/12/31 06:07:31;;;;;;;4.47;2.50;;;2.00;92.60;;;;;;4963005;29;20067;-80
2020/12/31 06:10:05;;;;;;;6.28;2.85;;;2.00;92.70;;;;;;4956837;29;20044;-81
2020/12/31 06:12:47;;;;;;;5.65;2.72;;;2.00;92.60;;;;;;4956544;29;20059;-80
2020/12/31 06:15:19;;;;;;;5.13;2.80;;;2.00;92.30;;;;;;4940040;29;20063;-81
2020/12/31 06:20:46;;;;;;;5.30;2.70;;;2.20;92.10;;;;;;4959238;28;20062;-82
2020/12/31 06:29:44;;;;;;;5.72;3.00;;;2.30;91.80;;;;;;5153740;23;20548;-79
2020/12/31 06:32:25;;;;;;;5.47;3.20;;;2.40;91.90;;;;;;5002450;28;20062;-78
2020/12/31 06:35:01;;;;;;;7.63;3.42;;;2.40;91.90;;;;;;4991638;28;20047;-78
2020/12/31 06:37:30;;;;;;;5.50;3.22;;;2.50;91.70;;;;;;5001003;28;20047;-79
2020/12/31 06:40:26;;;;;;;6.68;3.47;;;2.60;91.80;;;;;;4988816;28;20118;-78
2020/12/31 06:43:08;;;;;;;7.63;3.60;;;2.60;91.60;;;;;;4984568;28;20081;-79
2020/12/31 06:45:39;;;;;;;5.85;3.60;;;2.60;91.60;;;;;;4984530;28;20462;-78
2020/12/31 06:48:39;;;;;;;5.72;3.63;;;2.80;91.50;;;;;;4983050;28;20111;-78
2020/12/31 06:51:12;;;;;;;6.43;3.35;;;2.60;91.40;;;;;;4984673;28;20047;-79
2020/12/31 06:53:45;;;;;;;6.30;3.28;;;2.70;91.60;;;;;;4985051;28;20070;-79
2020/12/31 06:56:42;;;;;;;5.68;3.85;;;2.70;91.50;;;;;;4985718;28;20097;-80
2020/12/31 06:59:33;;;;;;;6.10;3.75;;;2.80;91.50;;;;;;4991723;28;20054;-80
2020/12/31 07:02:02;;;;;;;5.43;3.38;;;2.80;91.40;;;;;;5008451;28;20054;-80
2020/12/31 07:04:34;;;;;;;6.60;3.55;;;2.90;91.50;;;;;;5000124;28;20071;-79
2020/12/31 07:07:26;;;;;;;8.32;3.70;;;2.90;91.40;;;;;;4960022;29;20062;-80
2020/12/31 07:09:55;;;;;;;5.80;3.50;;;2.90;91.60;;;;;;4991968;28;20110;-80
2020/12/31 07:12:34;;;;;;;6.35;3.78;;;2.90;91.30;;;;;;4996355;28;20050;-80
2020/12/31 07:15:02;;;;;;;6.97;3.90;;;3.00;91.30;;;;;;4987734;28;20054;-81
2020/12/31 07:17:34;;;;;;;6.45;3.80;;;3.00;91.10;;;;;;4998535;28;20070;-79
2020/12/31 07:20:04;;;;;;;7.80;4.60;;;3.00;91.30;;;;;;4998332;28;20057;-79
2020/12/31 07:22:31;;;;;;;7.13;4.13;;;3.00;91.40;;;;;;4981105;28;20031;-82
2020/12/31 07:25:03;;;;;;;6.93;4.20;;;3.00;91.50;;;;;;4963018;29;20086;-81
2020/12/31 07:27:32;;;;;;;8.15;4.68;;;3.10;91.50;;;;;;4979179;29;20128;-81
2020/12/31 07:30:12;;;;;;;7.10;4.30;;;3.20;91.30;;;;;;4979168;29;20038;-81
2020/12/31 07:33:00;;;;;;;7.80;4.50;;;3.30;91.20;;;;;;4996725;28;20078;-80
2020/12/31 07:35:34;;;;;;;7.82;4.60;;;3.30;91.10;;;;;;4994770;28;20055;-81
2020/12/31 07:38:04;;;;;;;7.20;4.35;;;3.40;91.10;;;;;;4980802;28;20078;-80
2020/12/31 07:41:11;;;;;;;8.98;4.50;;;3.60;90.70;;;;;;4995047;28;20058;-80
2020/12/31 07:43:40;;;;;;;8.13;4.43;;;3.50;90.50;;;;;;5019140;28;20066;-80
2020/12/31 07:46:07;;;;;;;7.90;4.40;;;3.60;90.40;;;;;;5020702;28;20054;-81
2020/12/31 07:48:35;;;;;;;6.90;4.80;;;3.60;90.60;;;;;;5018540;28;20039;-82
2020/12/31 07:51:05;;;;;;;8.20;5.00;;;3.60;90.60;;;;;;5616581;23;20058;-79
2020/12/31 07:53:31;;;;;;;9.50;5.00;;;3.50;90.50;;;;;;4946226;29;20060;-81
2020/12/31 07:55:59;;;;;;;7.78;4.68;;;3.60;90.60;;;;;;4947001;29;20059;-80
2020/12/31 07:58:29;;;;;;;8.98;5.20;;;3.80;90.50;;;;;;4980388;28;20039;-79
2020/12/31 08:00:59;;;;;;;7.25;4.35;;;3.70;90.40;;;;;;4977354;29;20124;-80
2020/12/31 08:42:55;;;;;;;9.13;5.47;;;4.30;89.80;;;;;;5930152;23;20037;-87
2020/12/31 08:45:28;;;;;;;8.27;5.00;;;4.30;89.40;;;;;;4963246;28;20055;-89
2020/12/31 08:48:22;;;;;;;8.27;4.88;;;4.40;87.90;;;;;;4959083;28;20499;-88
2020/12/31 08:51:06;;;;;;;9.45;5.38;;;4.40;87.60;;;;;;4961288;28;20134;-87
2020/12/31 08:53:47;;;;;;;9.02;5.10;;;4.40;88.10;;;;;;4967081;28;20059;-84
2020/12/31 09:07:27;;;;;;;8.57;4.95;;;4.40;86.30;;;;;;4971616;29;20063;-88
2020/12/31 09:09:54;;;;;;;7.28;4.45;;;4.40;87.60;;;;;;4977091;28;20062;-89
2020/12/31 09:12:21;;;;;;;8.95;4.70;;;4.50;87.70;;;;;;4957926;29;20055;-93
2020/12/31 09:14:57;;;;;;;7.53;4.70;;;4.60;88.00;;;;;;4971433;29;20052;-92
2020/12/31 09:17:25;;;;;;;9.02;4.93;;;4.80;87.50;;;;;;4965105;29;20159;-93
2020/12/31 09:19:54;;;;;;;10.98;5.57;;;4.80;88.20;;;;;;4951269;29;20055;-94
2020/12/31 09:22:23;;;;;;;7.10;4.65;;;4.80;87.00;;;;;;4964239;28;20110;-94
2020/12/31 09:24:51;;;;;;;8.20;5.00;;;4.80;86.70;;;;;;4973817;28;20046;-92
2020/12/31 09:27:23;;;;;;;8.52;5.07;;;4.80;85.70;;;;;;4957706;28;20555;-89
2020/12/31 09:29:56;;;;;;;8.20;4.93;;;4.60;86.20;;;;;;4975972;28;20067;-90
2020/12/31 09:36:29;;;;;;;9.48;5.10;;;4.80;87.10;;;;;;5483844;23;20389;-90
2020/12/31 09:39:11;;;;;;;7.85;4.70;;;4.90;85.30;;;;;;4954352;29;20074;-91
2020/12/31 09:41:47;;;;;;;6.97;4.10;;;4.90;85.60;;;;;;4956118;29;20071;-90
2020/12/31 09:44:15;;;;;;;8.02;4.53;;;4.70;86.10;;;;;;4957041;29;20086;-90
2020/12/31 09:47:30;;;;;;;7.28;4.55;;;4.80;85.60;;;;;;4952945;29;20055;-90
2020/12/31 09:49:57;;;;;;;6.55;4.03;;;4.70;85.60;;;;;;4970206;29;20058;-91
2020/12/31 09:52:26;;;;;;;6.63;4.03;;;4.90;84.40;;;;;;4954311;29;20110;-88
2020/12/31 09:55:21;;;;;;;7.57;4.47;;;5.00;85.00;;;;;;4968782;28;20070;-89
2020/12/31 09:57:47;;;;;;;;;;;4.70;85.80;;;;;;4967376;29;20043;-90
2020/12/31 10:00:14;;;;;;;6.35;3.65;;;4.90;85.30;;;;;;4966160;29;19930;-88
2020/12/31 10:02:41;;;;;;;8.60;3.90;;;5.00;85.10;;;;;;4963705;29;20562;-88
2020/12/31 10:05:09;;;;;;;6.68;4.10;;;5.10;85.10;;;;;;4965812;29;20086;-90
2020/12/31 10:07:38;;;;;;;6.93;4.18;;;4.80;84.50;;;;;;4966677;29;20576;-90
2020/12/31 10:10:07;;;;;;;7.95;4.43;;;4.90;84.40;;;;;;4948339;29;20059;-87
2020/12/31 10:12:34;;;;;;;6.97;4.20;;;5.00;84.60;;;;;;4963390;29;20047;-88
2020/12/31 10:15:01;;;;;;;6.25;3.90;;;4.90;83.80;;;;;;4957600;28;20134;-89
2020/12/31 10:17:28;;;;;;;6.40;3.92;;;4.80;84.80;;;;;;4935622;29;20130;-89
2020/12/31 10:19:56;;;;;;;6.53;4.00;;;4.80;84.70;;;;;;4955153;29;20047;-88
2020/12/31 10:22:24;;;;;;;6.13;3.60;;;4.90;84.80;;;;;;4938349;29;20051;-90
2020/12/31 10:24:50;;;;;;;7.45;3.67;;;5.00;84.20;;;;;;4953854;29;20134;-94
2020/12/31 10:27:17;;;;;;;6.85;3.92;;;5.10;84.00;;;;;;4953940;29;20653;-90
2020/12/31 10:29:44;;;;;;;6.20;3.95;;;5.10;83.20;;;;;;4954553;29;20055;-90
2020/12/31 10:32:11;;;;;;;7.25;4.03;;;5.20;82.90;;;;;;4953930;29;20470;-86
2020/12/31 10:34:39;;;;;;;7.40;4.30;;;5.20;83.50;;;;;;4938522;29;20051;-88
2020/12/31 10:37:06;;;;;;;6.80;4.05;;;5.20;83.20;;;;;;4933983;29;20143;-91
2020/12/31 10:39:33;;;;;;;6.88;4.20;;;5.20;82.20;;;;;;4947185;29;20075;-91
2020/12/31 10:45:20;;;;;;;6.55;4.03;;;5.00;81.30;;;;;;5030013;23;20066;-87
2020/12/31 10:47:47;;;;;;;7.07;4.03;;;5.20;81.30;;;;;;4978797;28;20070;-87
2020/12/31 10:50:14;;;;;;;6.35;3.97;;;5.10;81.50;;;;;;4978712;28;20128;-87
2020/12/31 10:55:26;;;;;;;6.35;3.60;;;5.10;82.20;;;;;;5482106;23;20056;-87
2020/12/31 10:57:53;;;;;;;6.40;3.75;;;5.10;82.80;;;;;;4941373;29;20059;-90
2020/12/31 11:00:20;;;;;;;6.20;3.35;;;5.00;83.80;;;;;;4940139;29;20048;-88
2020/12/31 11:02:50;;;;;;;6.10;3.88;;;5.00;84.40;;;;;;4940052;29;20086;-87
2020/12/31 11:05:16;;;;;;;6.13;3.85;;;4.90;84.40;;;;;;4923620;29;20151;-88
2020/12/31 11:07:43;;;;;;;5.78;3.80;;;5.00;84.70;;;;;;4940230;29;20175;-88
2020/12/31 11:10:10;;;;;;;5.82;3.50;;;5.10;84.70;;;;;;4939972;29;20456;-88
2020/12/31 11:12:36;;;;;;;5.63;3.40;;;5.10;86.30;;;;;;4939571;29;20075;-89
2020/12/31 11:15:03;;;;;;;5.60;3.50;;;5.00;85.20;;;;;;4939479;29;20142;-89
2020/12/31 11:17:31;;;;;;;5.65;3.25;;;5.20;84.40;;;;;;4947002;29;20130;-90
2020/12/31 11:19:57;;;;;;;6.47;3.45;;;5.30;84.60;;;;;;4945966;29;20083;-88
2020/12/31 11:22:24;;;;;;;5.15;3.10;;;5.40;83.90;;;;;;4953536;29;20082;-88
2020/12/31 11:24:51;;;;;;;5.57;3.10;;;5.60;84.20;;;;;;4942610;29;20423;-87
2020/12/31 11:27:17;;;;;;;6.15;3.60;;;5.70;83.40;;;;;;4937594;29;20422;-85
2020/12/31 11:29:44;;;;;;;5.47;2.95;;;5.70;81.80;;;;;;4948972;29;20130;-85
2020/12/31 11:32:10;;;;;;;6.03;2.85;;;5.80;81.10;;;;;;4946867;29;20212;-85
2020/12/31 11:34:38;;;;;;;5.47;3.10;;;5.90;82.00;;;;;;4954166;29;20498;-85
2020/12/31 11:37:05;;;;;;;5.72;3.28;;;5.90;82.10;;;;;;4946098;29;20447;-86
2020/12/31 11:39:31;;;;;;;5.55;3.10;;;5.80;82.00;;;;;;4944596;29;20051;-85
2020/12/31 11:41:59;;;;;;;5.60;2.97;;;5.90;82.20;;;;;;4952450;29;20047;-86
2020/12/31 11:44:26;;;;;;;6.10;3.20;;;6.00;81.80;;;;;;4925810;29;20058;-85
2020/12/31 11:46:58;;;;;;;5.25;3.15;;;6.10;81.30;;;;;;4944665;29;20055;-87
2020/12/31 11:49:24;;;;;;;5.85;3.38;;;6.10;81.30;;;;;;4939522;29;20134;-84
2020/12/31 11:51:57;;;;;;;5.75;3.00;;;6.20;81.00;;;;;;4951794;29;20055;-86
2020/12/31 11:54:24;;;;;;;5.20;2.97;;;6.10;81.30;;;;;;4952837;29;20123;-84
2020/12/31 11:56:50;;;;;;;4.85;3.00;;;6.10;81.30;;;;;;4937989;29;20130;-85
2020/12/31 11:59:18;;;;;;;5.35;3.53;;;6.00;81.90;;;;;;4936528;29;20138;-81
2020/12/31 12:01:50;;;;;;;4.85;2.97;;;6.00;82.10;;;;;;4901044;29;20044;-79
2020/12/31 12:04:17;;;;;;;4.95;2.92;;;6.00;82.60;;;;;;4930516;29;20066;-79
2020/12/31 12:06:54;;;;;;;5.97;3.47;;;6.00;82.90;;;;;;4937558;29;20051;-79
2020/12/31 12:09:21;;;;;;;5.22;3.45;;;5.90;83.70;;;;;;4937670;29;20126;-80
2020/12/31 12:11:48;;;;;;;10.70;6.07;;;5.80;84.90;;;;;;4933848;29;20055;-80
2020/12/31 12:14:15;;;;;;;16.02;7.57;;;5.80;86.60;;;;;;4930047;29;20134;-79
2020/12/31 12:16:43;;;;;;;6.22;3.63;;;5.70;87.20;;;;;;4933906;29;20067;-79
2020/12/31 12:19:11;;;;;;;5.55;3.33;;;5.70;87.40;;;;;;4933415;29;20083;-80
2020/12/31 12:21:37;;;;;;;6.75;3.75;;;5.70;87.20;;;;;;4933318;29;20154;-81
2020/12/31 12:24:07;;;;;;;5.55;2.95;;;5.70;87.50;;;;;;4932630;29;20079;-80
2020/12/31 12:26:35;;;;;;;5.00;3.10;;;5.80;88.20;;;;;;4933051;29;20134;-79
2020/12/31 12:29:01;;;;;;;5.68;3.00;;;5.80;87.30;;;;;;4932989;29;20725;-82
2020/12/31 12:31:32;;;;;;;5.18;2.97;;;5.90;87.20;;;;;;4933455;29;20047;-77
2020/12/31 12:33:59;;;;;;;5.63;3.05;;;5.90;86.50;;;;;;4933105;29;20138;-77
2020/12/31 12:36:25;;;;;;;5.53;3.10;;;5.60;88.00;;;;;;4932668;29;20055;-77
2020/12/31 12:38:52;;;;;;;6.05;3.35;;;5.70;87.00;;;;;;4933554;29;20445;-79
2020/12/31 12:41:20;;;;;;;4.90;3.00;;;5.60;86.80;;;;;;4914062;29;20058;-78
2020/12/31 12:43:47;;;;;;;7.53;3.63;;;5.70;86.10;;;;;;4912271;29;20190;-78
2020/12/31 12:46:15;;;;;;;4.68;2.60;;;5.80;86.80;;;;;;4914744;29;20130;-79
2020/12/31 12:48:42;;;;;;;5.40;2.47;;;5.90;85.50;;;;;;4921484;29;20122;-77
2020/12/31 12:51:09;;;;;;;5.35;2.85;;;5.80;84.10;;;;;;4930350;29;20497;-78
2020/12/31 12:53:37;;;;;;;5.05;2.70;;;5.70;84.30;;;;;;4933079;29;20063;-77
2020/12/31 12:56:05;;;;;;;6.72;3.20;;;5.60;84.10;;;;;;4943775;29;20142;-78
2020/12/31 12:58:33;;;;;;;5.35;2.90;;;5.70;83.90;;;;;;4943141;29;20138;-78
2020/12/31 13:01:00;;;;;;;5.18;3.00;;;5.80;84.70;;;;;;4941039;29;20492;-78
2020/12/31 13:03:27;;;;;;;5.18;2.50;;;5.80;84.30;;;;;;4953250;29;20075;-79
2020/12/31 13:05:53;;;;;;;4.78;2.70;;;5.80;84.40;;;;;;4937922;29;20051;-81
2020/12/31 13:08:21;;;;;;;6.18;2.95;;;5.70;84.40;;;;;;4938470;29;20150;-79
2020/12/31 13:10:49;;;;;;;4.53;2.55;;;5.60;86.00;;;;;;4948738;29;20052;-78
2020/12/31 13:13:16;;;;;;;5.75;2.90;;;5.50;86.30;;;;;;4940939;29;20573;-79
2020/12/31 13:15:43;;;;;;;4.47;2.50;;;5.50;87.30;;;;;;4949804;29;20087;-80
2020/12/31 13:18:11;;;;;;;5.30;2.60;;;5.50;87.00;;;;;;4936528;29;20047;-79
2020/12/31 13:20:39;;;;;;;5.80;2.70;;;5.50;87.20;;;;;;4952075;29;20075;-79
2020/12/31 13:23:06;;;;;;;4.85;2.60;;;5.50;87.40;;;;;;4952127;29;20138;-79
2020/12/31 13:25:33;;;;;;;4.10;2.45;;;5.50;87.90;;;;;;4951833;29;20122;-80
2020/12/31 13:27:59;;;;;;;4.60;2.50;;;5.70;87.70;;;;;;4947587;29;20514;-79
2020/12/31 13:30:26;;;;;;;4.80;2.60;;;5.70;87.40;;;;;;4935295;29;20083;-78
2020/12/31 13:32:54;;;;;;;4.97;2.30;;;5.70;87.50;;;;;;4947409;29;20058;-79
2020/12/31 13:35:21;;;;;;;4.63;2.67;;;5.70;88.40;;;;;;4935380;29;20134;-81
2020/12/31 13:37:47;;;;;;;4.30;2.40;;;5.60;89.10;;;;;;4944367;29;20142;-80
2020/12/31 13:40:15;;;;;;;4.85;2.50;;;5.70;89.00;;;;;;4939408;29;20506;-81
2020/12/31 13:42:42;;;;;;;4.50;2.20;;;5.80;89.10;;;;;;4934492;29;20564;-78
2020/12/31 13:45:10;;;;;;;3.90;2.13;;;6.00;88.90;;;;;;4940761;29;20484;-78
2020/12/31 13:47:40;;;;;;;4.80;2.65;;;6.00;87.90;;;;;;4938096;29;20061;-77
2020/12/31 13:50:09;;;;;;;4.03;2.13;;;6.00;88.10;;;;;;4947260;29;20385;-77
2020/12/31 13:52:35;;;;;;;4.40;2.30;;;6.10;88.80;;;;;;4940680;29;20062;-76
2020/12/31 13:55:02;;;;;;;4.47;2.05;;;6.20;88.00;;;;;;4933826;29;20062;-76
2020/12/31 13:57:28;;;;;;;4.80;2.25;;;6.30;87.30;;;;;;4942799;29;20090;-77
2020/12/31 13:59:55;;;;;;;4.57;2.45;;;6.40;87.40;;;;;;4941170;29;20516;-76
2020/12/31 14:02:21;;;;;;;3.70;2.00;;;6.50;87.20;;;;;;4933942;29;20055;-76
2020/12/31 14:04:48;;;;;;;3.63;2.03;;;6.40;87.50;;;;;;4935569;29;20102;-79
2020/12/31 14:07:15;;;;;;;4.38;1.80;;;6.80;86.10;;;;;;4930286;29;20805;-78
2020/12/31 14:09:42;;;;;;;4.57;2.33;;;7.50;83.00;;;;;;4933653;29;20548;-80
2020/12/31 14:12:09;;;;;;;5.05;2.25;;;8.40;78.20;;;;;;4936996;29;20044;-79
2020/12/31 14:14:36;;;;;;;3.50;1.80;;;8.60;74.30;;;;;;4931267;29;20054;-79
2020/12/31 14:17:03;;;;;;;4.65;2.10;;;8.50;73.60;;;;;;4912998;29;20134;-80
2020/12/31 14:19:30;;;;;;;4.05;2.13;;;8.40;73.80;;;;;;4930628;29;20047;-80
2020/12/31 14:21:56;;;;;;;3.47;1.80;;;8.20;75.30;;;;;;4920207;29;20178;-79
2020/12/31 14:24:24;;;;;;;3.78;2.08;;;8.00;75.10;;;;;;4931197;29;20143;-78
2020/12/31 14:26:50;;;;;;;3.47;1.90;;;7.80;76.40;;;;;;4931074;29;20062;-80
2020/12/31 14:29:17;;;;;;;4.82;2.13;;;7.70;76.60;;;;;;4914504;29;20115;-78
2020/12/31 14:31:44;;;;;;;3.90;1.95;;;7.50;77.30;;;;;;4931419;29;20055;-79
2020/12/31 14:34:11;;;;;;;4.65;2.22;;;7.40;78.20;;;;;;4929908;29;20509;-80
2020/12/31 14:36:39;;;;;;;3.70;2.10;;;7.30;79.10;;;;;;4934561;29;20509;-78
2020/12/31 14:39:07;;;;;;;4.53;2.20;;;7.20;79.30;;;;;;4928884;29;20048;-79
2020/12/31 14:41:39;;;;;;;3.58;1.83;;;7.10;81.60;;;;;;4939028;29;20047;-79
2020/12/31 14:44:07;;;;;;;3.95;1.90;;;7.00;80.40;;;;;;4950831;29;20488;-80